createdAt,value
2023-04-02T00:00:34.192Z,97.91
2023-04-02T00:01:34.094Z,97.71
2023-04-02T00:02:34.288Z,97.08
2023-04-02T00:03:34.145Z,97.08
2023-04-02T00:04:34.146Z,97.19
2023-04-02T00:05:34.321Z,97.19
2023-04-02T00:06:35.130Z,96.88
2023-04-02T00:07:34.018Z,96.77
2023-04-02T00:08:34.124Z,97.71
2023-04-02T00:09:34.110Z,97.19
2023-04-02T00:10:36.093Z,95.89
2023-04-02T00:11:34.021Z,97.02
2023-04-02T00:12:36.000Z,96.92
2023-04-02T00:13:33.991Z,98.37
2023-04-02T00:14:35.003Z,98.27
2023-04-02T00:15:34.355Z,97.33
2023-04-02T00:16:36.051Z,97.54
2023-04-02T00:17:33.943Z,98.16
2023-04-02T00:18:34.044Z,97.13
2023-04-02T00:19:33.930Z,97.75
2023-04-02T00:20:33.942Z,97.33
2023-04-02T00:21:33.889Z,98.37
2023-04-02T00:22:33.926Z,98.06
2023-04-02T00:23:33.854Z,97.02
2023-04-02T00:24:33.961Z,99.82
2023-04-02T00:25:34.102Z,98.78
2023-04-02T00:26:33.954Z,98.47
2023-04-02T00:27:33.840Z,97.75
2023-04-02T00:28:33.910Z,96.61
2023-04-02T00:29:34.075Z,97.44
2023-04-02T00:30:33.914Z,97.75
2023-04-02T00:31:33.797Z,96.76
2023-04-02T00:32:34.059Z,97.38
2023-04-02T00:33:33.780Z,97.79
2023-04-02T00:34:33.838Z,98.31
2023-04-02T00:35:33.956Z,98.62
2023-04-02T00:36:33.862Z,99.04
2023-04-02T00:37:33.710Z,98.52
2023-04-02T00:38:33.751Z,99.99
2023-04-02T00:39:33.685Z,98.41
2023-04-02T00:40:33.805Z,98.41
2023-04-02T00:41:33.694Z,96.55
2023-04-02T00:42:33.957Z,97.07
2023-04-02T00:43:33.652Z,96.55
2023-04-02T00:44:33.669Z,97.49
2023-04-02T00:45:33.910Z,97.59
2023-04-02T00:46:33.718Z,98.62
2023-04-02T00:47:33.668Z,98.10
2023-04-02T00:48:33.705Z,98.25
2023-04-02T00:49:33.612Z,98.10
2023-04-02T00:50:33.644Z,99.34
2023-04-02T00:51:33.576Z,97.59
2023-04-02T00:52:33.628Z,99.08
2023-04-02T00:53:33.558Z,99.86
2023-04-02T00:54:33.636Z,99.99
2023-04-02T00:55:33.776Z,99.99
2023-04-02T00:56:36.669Z,98.62
2023-04-02T00:57:33.745Z,99.24
2023-04-02T00:58:55.597Z,99.44
2023-04-02T00:59:33.505Z,99.55
2023-04-02T01:00:35.581Z,99.99
2023-04-02T01:01:33.573Z,99.99
2023-04-02T01:02:33.629Z,99.99
2023-04-02T01:03:33.718Z,99.99
2023-04-02T01:04:33.519Z,99.99
2023-04-02T01:05:33.727Z,99.99
2023-04-02T01:06:33.508Z,99.99
2023-04-02T01:07:33.458Z,99.99
2023-04-02T01:08:33.433Z,99.99
2023-04-02T01:09:33.385Z,99.91
2023-04-02T01:10:33.551Z,98.97
2023-04-02T01:11:33.374Z,99.99
2023-04-02T01:12:33.392Z,98.97
2023-04-02T01:13:33.384Z,97.63
2023-04-02T01:14:33.370Z,97.84
2023-04-02T01:15:33.554Z,98.97
2023-04-02T01:16:33.403Z,99.99
2023-04-02T01:17:33.377Z,99.99
2023-04-02T01:18:33.329Z,99.43
2023-04-02T01:19:33.296Z,98.09
2023-04-02T01:20:33.308Z,99.43
2023-04-02T01:21:33.268Z,98.82
2023-04-02T01:22:33.322Z,99.23
2023-04-02T01:23:33.265Z,99.74
2023-04-02T01:24:33.341Z,99.64
2023-04-02T01:25:33.512Z,99.02
2023-04-02T01:26:33.426Z,99.95
2023-04-02T01:27:33.201Z,99.99
2023-04-02T01:28:33.266Z,99.64
2023-04-02T01:29:34.101Z,99.54
2023-04-02T01:30:33.293Z,99.99
2023-04-02T01:31:33.281Z,99.99
2023-04-02T01:32:33.319Z,99.64
2023-04-02T01:33:33.142Z,99.85
2023-04-02T01:34:33.258Z,99.13
2023-04-02T01:35:33.322Z,98.61
2023-04-02T01:36:33.222Z,99.99
2023-04-02T01:37:33.097Z,99.99
2023-04-02T01:38:33.142Z,99.99
2023-04-02T01:39:33.071Z,99.99
2023-04-02T01:40:33.177Z,99.99
2023-04-02T01:41:33.048Z,99.99
2023-04-02T01:42:34.244Z,99.99
2023-04-02T01:43:33.024Z,99.99
2023-04-02T01:44:56.152Z,99.99
2023-04-02T01:45:33.314Z,99.99
2023-04-02T01:46:35.054Z,99.99
2023-04-02T01:47:33.063Z,99.99
2023-04-02T01:48:33.000Z,99.99
2023-04-02T01:49:32.988Z,99.13
2023-04-02T01:50:33.053Z,99.99
2023-04-02T01:51:32.960Z,99.99
2023-04-02T01:52:33.068Z,99.99
2023-04-02T01:53:32.932Z,99.99
2023-04-02T01:54:32.932Z,99.99
2023-04-02T01:55:33.218Z,99.99
2023-04-02T01:56:32.941Z,99.99
2023-04-02T01:57:32.993Z,99.99
2023-04-02T01:58:32.994Z,99.99
2023-04-02T01:59:32.893Z,99.99
2023-04-02T02:00:32.988Z,99.99
2023-04-02T02:01:32.878Z,99.99
2023-04-02T02:02:32.976Z,99.99
2023-04-02T02:03:32.838Z,99.99
2023-04-02T02:04:33.067Z,99.99
2023-04-02T02:05:33.145Z,99.99
2023-04-02T02:06:32.836Z,99.99
2023-04-02T02:07:32.783Z,99.33
2023-04-02T02:08:32.834Z,99.85
2023-04-02T02:09:32.780Z,99.02
2023-04-02T02:10:32.891Z,99.99
2023-04-02T02:11:32.752Z,99.99
2023-04-02T02:12:32.756Z,99.99
2023-04-02T02:13:32.735Z,99.99
2023-04-02T02:14:33.423Z,99.99
2023-04-02T02:15:32.849Z,99.99
2023-04-02T02:16:32.841Z,99.99
2023-04-02T02:17:32.736Z,99.99
2023-04-02T02:18:32.694Z,99.99
2023-04-02T02:19:32.676Z,99.99
2023-04-02T02:20:32.738Z,99.99
2023-04-02T02:21:32.645Z,99.99
2023-04-02T02:22:32.723Z,99.99
2023-04-02T02:23:32.629Z,98.97
2023-04-02T02:24:32.657Z,99.18
2023-04-02T02:25:33.070Z,99.99
2023-04-02T02:26:32.656Z,99.99
2023-04-02T02:27:32.597Z,99.99
2023-04-02T02:28:32.672Z,99.99
2023-04-02T02:29:32.568Z,99.99
2023-04-02T02:30:35.695Z,99.99
2023-04-02T02:31:32.554Z,99.99
2023-04-02T02:32:34.632Z,99.99
2023-04-02T02:33:32.529Z,99.99
2023-04-02T02:34:33.534Z,99.99
2023-04-02T02:35:32.565Z,99.99
2023-04-02T02:36:32.519Z,99.99
2023-04-02T02:37:32.602Z,99.29
2023-04-02T02:38:32.527Z,98.66
2023-04-02T02:39:32.473Z,98.15
2023-04-02T02:40:33.478Z,97.94
2023-04-02T02:41:32.467Z,98.31
2023-04-02T02:42:32.464Z,99.04
2023-04-02T02:43:32.419Z,99.55
2023-04-02T02:44:32.480Z,98.93
2023-04-02T02:45:32.478Z,98.83
2023-04-02T02:46:32.488Z,99.24
2023-04-02T02:47:32.415Z,99.34
2023-04-02T02:48:32.404Z,98.83
2023-04-02T02:49:32.617Z,99.65
2023-04-02T02:50:32.454Z,99.44
2023-04-02T02:51:32.351Z,99.86
2023-04-02T02:52:32.446Z,99.99
2023-04-02T02:53:32.315Z,99.99
2023-04-02T02:54:32.352Z,99.99
2023-04-02T02:55:32.547Z,99.76
2023-04-02T02:56:32.347Z,98.83
2023-04-02T02:57:32.347Z,97.38
2023-04-02T02:58:32.368Z,98.41
2023-04-02T02:59:32.254Z,98.21
2023-04-02T03:00:32.303Z,98.72
2023-04-02T03:01:32.307Z,98.10
2023-04-02T03:02:32.393Z,98.10
2023-04-02T03:03:32.371Z,97.17
2023-04-02T03:04:32.327Z,98.93
2023-04-02T03:05:32.276Z,99.04
2023-04-02T03:06:32.233Z,99.99
2023-04-02T03:07:32.185Z,99.86
2023-04-02T03:08:32.241Z,98.93
2023-04-02T03:09:32.150Z,98.52
2023-04-02T03:10:32.463Z,98.00
2023-04-02T03:11:32.120Z,97.38
2023-04-02T03:12:32.160Z,97.89
2023-04-02T03:13:32.118Z,97.69
2023-04-02T03:14:32.166Z,96.66
2023-04-02T03:15:32.132Z,96.86
2023-04-02T03:16:32.090Z,97.23
2023-04-02T03:17:32.079Z,98.78
2023-04-02T03:18:34.160Z,98.16
2023-04-02T03:19:32.047Z,98.06
2023-04-02T03:20:32.144Z,96.76
2023-04-02T03:21:32.049Z,97.33
2023-04-02T03:22:32.057Z,97.02
2023-04-02T03:23:32.023Z,98.37
2023-04-02T03:24:32.040Z,98.27
2023-04-02T03:25:31.997Z,98.27
2023-04-02T03:26:32.980Z,99.71
2023-04-02T03:27:31.982Z,99.99
2023-04-02T03:28:31.981Z,99.19
2023-04-02T03:29:31.942Z,97.54
2023-04-02T03:30:31.989Z,96.61
2023-04-02T03:31:32.746Z,97.64
2023-04-02T03:32:32.076Z,97.75
2023-04-02T03:33:31.896Z,97.64
2023-04-02T03:34:31.913Z,98.27
2023-04-02T03:35:31.903Z,98.16
2023-04-02T03:36:31.925Z,97.85
2023-04-02T03:37:31.876Z,99.40
2023-04-02T03:38:31.957Z,99.40
2023-04-02T03:39:31.833Z,99.09
2023-04-02T03:40:31.868Z,98.68
2023-04-02T03:41:31.844Z,98.37
2023-04-02T03:42:31.909Z,98.47
2023-04-02T03:43:34.290Z,99.71
2023-04-02T03:44:31.893Z,97.75
2023-04-02T03:45:31.778Z,98.68
2023-04-02T03:46:31.878Z,98.78
2023-04-02T03:47:31.788Z,99.61
2023-04-02T03:48:31.848Z,98.99
2023-04-02T03:49:31.748Z,99.30
2023-04-02T03:50:31.841Z,97.85
2023-04-02T03:51:31.713Z,97.23
2023-04-02T03:52:31.740Z,97.75
2023-04-02T03:53:31.714Z,98.27
2023-04-02T03:54:31.752Z,98.78
2023-04-02T03:55:31.678Z,99.99
2023-04-02T03:56:32.157Z,99.61
2023-04-02T03:57:31.718Z,99.19
2023-04-02T03:58:31.692Z,98.99
2023-04-02T03:59:31.638Z,99.30
2023-04-02T04:00:31.695Z,99.40
2023-04-02T04:01:31.605Z,99.61
2023-04-02T04:02:31.756Z,99.92
2023-04-02T04:03:31.589Z,99.99
2023-04-02T04:04:31.916Z,99.99
2023-04-02T04:05:31.563Z,99.99
2023-04-02T04:06:31.648Z,99.99
2023-04-02T04:07:31.569Z,99.99
2023-04-02T04:08:33.588Z,99.99
2023-04-02T04:09:31.542Z,99.99
2023-04-02T04:10:31.570Z,99.99
2023-04-02T04:11:31.510Z,99.99
2023-04-02T04:12:31.606Z,99.99
2023-04-02T04:13:31.495Z,99.99
2023-04-02T04:14:32.524Z,99.99
2023-04-02T04:15:31.467Z,99.99
2023-04-02T04:16:31.520Z,99.99
2023-04-02T04:17:31.465Z,99.99
2023-04-02T04:18:31.523Z,99.99
2023-04-02T04:19:31.437Z,99.99
2023-04-02T04:20:31.530Z,99.99
2023-04-02T04:21:31.513Z,99.99
2023-04-02T04:22:31.440Z,99.99
2023-04-02T04:23:31.383Z,99.99
2023-04-02T04:24:31.503Z,99.99
2023-04-02T04:25:31.368Z,99.99
2023-04-02T04:26:31.464Z,99.99
2023-04-02T04:27:31.344Z,99.99
2023-04-02T04:28:31.398Z,99.99
2023-04-02T04:29:31.338Z,99.99
2023-04-02T04:30:31.400Z,99.99
2023-04-02T04:31:31.327Z,99.99
2023-04-02T04:32:31.331Z,99.99
2023-04-02T04:33:31.272Z,99.99
2023-04-02T04:34:31.348Z,99.99
2023-04-02T04:35:31.301Z,99.99
2023-04-02T04:36:31.333Z,99.99
2023-04-02T04:37:31.239Z,99.99
2023-04-02T04:38:31.251Z,99.99
2023-04-02T04:39:31.240Z,99.99
2023-04-02T04:40:31.277Z,99.99
2023-04-02T04:41:31.204Z,99.99
2023-04-02T04:42:31.314Z,99.99
2023-04-02T04:43:31.175Z,99.99
2023-04-02T04:44:31.194Z,99.99
2023-04-02T04:45:31.169Z,99.99
2023-04-02T04:46:31.257Z,99.99
2023-04-02T04:47:31.222Z,99.99
2023-04-02T04:48:31.210Z,99.99
2023-04-02T04:49:31.128Z,99.99
2023-04-02T04:50:31.173Z,99.99
2023-04-02T04:51:31.105Z,99.99
2023-04-02T04:52:33.202Z,99.99
2023-04-02T04:53:31.078Z,99.99
2023-04-02T04:54:32.215Z,99.99
2023-04-02T04:55:31.084Z,99.99
2023-04-02T04:56:31.064Z,99.99
2023-04-02T04:57:31.166Z,99.99
2023-04-02T04:58:31.090Z,99.99
2023-04-02T04:59:31.024Z,99.99
2023-04-02T05:00:32.020Z,99.99
2023-04-02T05:01:31.036Z,99.99
2023-04-02T05:02:31.489Z,99.99
2023-04-02T05:03:30.960Z,99.99
2023-04-02T05:04:31.041Z,99.99
2023-04-02T05:05:30.944Z,99.99
2023-04-02T05:06:31.037Z,99.99
2023-04-02T05:07:30.938Z,99.99
2023-04-02T05:08:30.981Z,99.99
2023-04-02T05:09:30.905Z,99.99
2023-04-02T05:10:30.955Z,99.99
2023-04-02T05:11:30.903Z,99.99
2023-04-02T05:12:30.983Z,99.99
2023-04-02T05:13:30.874Z,99.99
2023-04-02T05:14:30.912Z,99.99
2023-04-02T05:15:30.897Z,99.99
2023-04-02T05:16:30.972Z,99.99
2023-04-02T05:17:30.925Z,99.99
2023-04-02T05:18:30.909Z,99.99
2023-04-02T05:19:30.892Z,99.99
2023-04-02T05:20:30.838Z,99.99
2023-04-02T05:21:30.806Z,99.99
2023-04-02T05:22:30.956Z,99.99
2023-04-02T05:23:30.793Z,99.99
2023-04-02T05:24:30.866Z,99.99
2023-04-02T05:25:30.747Z,99.99
2023-04-02T05:26:30.880Z,99.99
2023-04-02T05:27:30.808Z,99.99
2023-04-02T05:28:30.886Z,99.99
2023-04-02T05:29:30.698Z,99.99
2023-04-02T05:30:30.792Z,99.99
2023-04-02T05:31:30.703Z,99.99
2023-04-02T05:32:30.858Z,99.99
2023-04-02T05:33:30.677Z,99.99
2023-04-02T05:34:30.901Z,99.99
2023-04-02T05:35:30.643Z,99.99
2023-04-02T05:36:30.738Z,99.99
2023-04-02T05:37:30.767Z,99.99
2023-04-02T05:38:30.728Z,99.99
2023-04-02T05:39:30.604Z,99.99
2023-04-02T05:40:30.673Z,99.99
2023-04-02T05:41:30.593Z,99.99
2023-04-02T05:42:32.626Z,99.99
2023-04-02T05:43:30.578Z,99.99
2023-04-02T05:44:32.661Z,99.99
2023-04-02T05:45:30.530Z,99.99
2023-04-02T05:46:32.569Z,99.99
2023-04-02T05:47:30.543Z,99.99
2023-04-02T05:48:31.548Z,99.99
2023-04-02T05:49:30.508Z,99.99
2023-04-02T05:50:30.542Z,99.99
2023-04-02T05:51:30.479Z,99.99
2023-04-02T05:52:30.559Z,99.99
2023-04-02T05:53:30.470Z,99.99
2023-04-02T05:54:30.506Z,99.99
2023-04-02T05:55:30.561Z,99.87
2023-04-02T05:56:30.479Z,99.99
2023-04-02T05:57:42.363Z,99.99
2023-04-02T05:58:36.244Z,99.99
2023-04-02T05:59:30.396Z,99.77
2023-04-02T06:00:30.431Z,99.99
2023-04-02T06:01:30.399Z,99.99
2023-04-02T06:02:30.625Z,99.99
2023-04-02T06:03:30.450Z,99.99
2023-04-02T06:04:30.520Z,99.99
2023-04-02T06:05:30.377Z,99.99
2023-04-02T06:06:30.366Z,99.99
2023-04-02T06:07:30.326Z,99.99
2023-04-02T06:08:30.369Z,99.99
2023-04-02T06:09:30.339Z,99.99
2023-04-02T06:10:30.371Z,99.99
2023-04-02T06:11:30.286Z,99.99
2023-04-02T06:12:30.300Z,99.99
2023-04-02T06:13:30.260Z,99.99
2023-04-02T06:14:30.330Z,99.99
2023-04-02T06:15:30.254Z,99.99
2023-04-02T06:16:30.406Z,99.99
2023-04-02T06:17:30.313Z,99.99
2023-04-02T06:18:30.240Z,99.99
2023-04-02T06:19:30.250Z,99.99
2023-04-02T06:20:30.260Z,99.99
2023-04-02T06:21:30.225Z,99.99
2023-04-02T06:22:30.241Z,97.86
2023-04-02T06:23:30.148Z,99.41
2023-04-02T06:24:30.196Z,98.28
2023-04-02T06:25:30.182Z,99.10
2023-04-02T06:26:31.207Z,98.96
2023-04-02T06:27:30.200Z,99.88
2023-04-02T06:28:31.249Z,99.99
2023-04-02T06:29:30.285Z,99.99
2023-04-02T06:30:30.213Z,99.57
2023-04-02T06:31:30.107Z,99.99
2023-04-02T06:32:32.211Z,99.78
2023-04-02T06:33:30.063Z,99.99
2023-04-02T06:34:30.096Z,99.99
2023-04-02T06:35:30.057Z,98.85
2023-04-02T06:36:30.079Z,97.51
2023-04-02T06:37:30.095Z,97.92
2023-04-02T06:38:30.090Z,98.85
2023-04-02T06:39:30.065Z,98.44
2023-04-02T06:40:30.088Z,99.06
2023-04-02T06:41:29.995Z,99.37
2023-04-02T06:42:30.014Z,99.37
2023-04-02T06:43:29.947Z,99.57
2023-04-02T06:44:30.060Z,99.88
2023-04-02T06:45:30.155Z,99.73
2023-04-02T06:46:30.154Z,99.73
2023-04-02T06:47:29.920Z,99.52
2023-04-02T06:48:29.925Z,99.52
2023-04-02T06:49:29.906Z,99.99
2023-04-02T06:50:29.975Z,99.99
2023-04-02T06:51:29.864Z,99.43
2023-04-02T06:52:29.971Z,99.22
2023-04-02T06:53:29.846Z,98.70
2023-04-02T06:54:29.906Z,98.91
2023-04-02T06:55:29.920Z,99.01
2023-04-02T06:56:29.883Z,99.22
2023-04-02T06:57:29.867Z,98.60
2023-04-02T06:58:29.816Z,98.29
2023-04-02T06:59:29.784Z,98.60
2023-04-02T07:00:29.850Z,98.60
2023-04-02T07:01:29.851Z,98.80
2023-04-02T07:02:29.850Z,99.58
2023-04-02T07:03:29.734Z,99.99
2023-04-02T07:04:29.756Z,98.66
2023-04-02T07:05:29.733Z,98.86
2023-04-02T07:06:29.747Z,99.99
2023-04-02T07:07:29.697Z,99.58
2023-04-02T07:08:29.764Z,98.24
2023-04-02T07:09:29.693Z,97.52
2023-04-02T07:10:29.709Z,97.38
2023-04-02T07:11:29.718Z,98.20
2023-04-02T07:12:29.684Z,97.89
2023-04-02T07:13:29.619Z,97.78
2023-04-02T07:14:30.772Z,96.66
2023-04-02T07:15:29.637Z,97.17
2023-04-02T07:16:31.696Z,96.55
2023-04-02T07:17:29.655Z,95.93
2023-04-02T07:18:31.683Z,96.75
2023-04-02T07:19:29.607Z,96.41
2023-04-02T07:20:30.618Z,96.41
2023-04-02T07:21:29.555Z,96.81
2023-04-02T07:22:29.803Z,96.81
2023-04-02T07:23:29.526Z,97.69
2023-04-02T07:24:30.705Z,98.00
2023-04-02T07:25:29.622Z,97.90
2023-04-02T07:26:29.592Z,97.44
2023-04-02T07:27:29.596Z,97.34
2023-04-02T07:28:29.496Z,97.75
2023-04-02T07:29:29.452Z,96.93
2023-04-02T07:30:29.533Z,97.24
2023-04-02T07:31:29.458Z,98.58
2023-04-02T07:32:29.545Z,98.47
2023-04-02T07:33:29.417Z,99.05
2023-04-02T07:34:29.457Z,98.84
2023-04-02T07:35:29.416Z,96.99
2023-04-02T07:36:29.462Z,95.24
2023-04-02T07:37:29.398Z,95.96
2023-04-02T07:38:29.470Z,96.37
2023-04-02T07:39:29.354Z,96.99
2023-04-02T07:40:29.376Z,95.45
2023-04-02T07:41:29.322Z,94.42
2023-04-02T07:42:29.430Z,94.73
2023-04-02T07:43:29.328Z,94.58
2023-04-02T07:44:29.411Z,95.40
2023-04-02T07:45:29.298Z,95.61
2023-04-02T07:46:29.334Z,95.71
2023-04-02T07:47:29.313Z,94.27
2023-04-02T07:48:29.366Z,94.89
2023-04-02T07:49:29.250Z,94.84
2023-04-02T07:50:29.353Z,96.08
2023-04-02T07:51:29.232Z,95.46
2023-04-02T07:52:29.280Z,92.07
2023-04-02T07:53:29.267Z,92.48
2023-04-02T07:54:29.266Z,91.04
2023-04-02T07:55:29.205Z,89.81
2023-04-02T07:56:29.292Z,91.04
2023-04-02T07:57:29.225Z,90.42
2023-04-02T07:58:29.200Z,90.32
2023-04-02T07:59:29.202Z,88.57
2023-04-02T08:00:29.213Z,85.90
2023-04-02T08:01:29.118Z,86.72
2023-04-02T08:02:50.285Z,86.93
2023-04-02T08:03:29.158Z,87.65
2023-04-02T08:04:29.111Z,90.94
2023-04-02T08:05:31.137Z,87.85
2023-04-02T08:06:29.076Z,87.85
2023-04-02T08:07:30.094Z,90.32
2023-04-02T08:08:29.065Z,88.78
2023-04-02T08:09:29.071Z,92.38
2023-04-02T08:10:29.058Z,91.25
2023-04-02T08:11:31.118Z,92.27
2023-04-02T08:12:29.002Z,89.81
2023-04-02T08:13:29.063Z,90.83
2023-04-02T08:14:29.005Z,92.27
2023-04-02T08:15:29.082Z,93.10
2023-04-02T08:16:29.015Z,93.20
2023-04-02T08:17:29.051Z,91.25
2023-04-02T08:18:28.949Z,91.70
2023-04-02T08:19:29.051Z,92.38
2023-04-02T08:20:28.949Z,89.95
2023-04-02T08:21:28.962Z,90.26
2023-04-02T08:22:28.923Z,90.26
2023-04-02T08:23:29.008Z,89.03
2023-04-02T08:24:28.912Z,87.49
2023-04-02T08:25:28.984Z,88.92
2023-04-02T08:26:28.885Z,88.62
2023-04-02T08:27:28.926Z,87.49
2023-04-02T08:28:28.956Z,89.64
2023-04-02T08:29:28.967Z,89.85
2023-04-02T08:30:28.845Z,88.51
2023-04-02T08:31:29.023Z,90.47
2023-04-02T08:32:28.860Z,91.49
2023-04-02T08:33:28.868Z,90.57
2023-04-02T08:34:28.790Z,91.33
2023-04-02T08:35:28.973Z,87.73
2023-04-02T08:36:29.577Z,88.76
2023-04-02T08:37:28.769Z,90.20
2023-04-02T08:38:28.751Z,90.00
2023-04-02T08:39:28.786Z,88.56
2023-04-02T08:40:28.741Z,88.04
2023-04-02T08:41:28.810Z,89.69
2023-04-02T08:42:28.706Z,90.61
2023-04-02T08:43:28.729Z,89.89
2023-04-02T08:44:28.693Z,91.23
2023-04-02T08:45:28.766Z,90.72
2023-04-02T08:46:28.709Z,92.25
2023-04-02T08:47:28.812Z,91.64
2023-04-02T08:48:28.689Z,90.00
2023-04-02T08:49:49.746Z,90.92
2023-04-02T08:50:28.626Z,92.57
2023-04-02T08:51:30.691Z,92.77
2023-04-02T08:52:28.596Z,94.21
2023-04-02T08:53:30.624Z,94.21
2023-04-02T08:54:29.053Z,94.07
2023-04-02T08:55:28.591Z,93.35
2023-04-02T08:56:28.562Z,93.55
2023-04-02T08:57:28.670Z,94.68
2023-04-02T08:58:28.539Z,94.17
2023-04-02T08:59:28.616Z,94.37
2023-04-02T09:00:28.509Z,92.42
2023-04-02T09:01:28.579Z,92.63
2023-04-02T09:02:28.552Z,92.93
2023-04-02T09:03:28.544Z,96.12
2023-04-02T09:04:28.510Z,93.76
2023-04-02T09:05:28.566Z,94.48
2023-04-02T09:06:28.476Z,94.07
2023-04-02T09:07:28.480Z,95.61
2023-04-02T09:08:28.436Z,94.02
2023-04-02T09:09:28.481Z,93.20
2023-04-02T09:10:28.408Z,93.40
2023-04-02T09:11:30.283Z,92.27
2023-04-02T09:12:28.474Z,90.32
2023-04-02T09:13:28.413Z,90.22
2023-04-02T09:14:28.369Z,85.70
2023-04-02T09:15:28.415Z,88.17
2023-04-02T09:16:28.352Z,85.90
2023-04-02T09:17:30.073Z,85.60
2023-04-02T09:18:28.360Z,86.42
2023-04-02T09:19:28.357Z,87.65
2023-04-02T09:20:28.310Z,90.01
2023-04-02T09:21:28.377Z,91.25
2023-04-02T09:22:28.339Z,92.89
2023-04-02T09:23:28.382Z,92.38
2023-04-02T09:24:28.269Z,89.91
2023-04-02T09:25:28.297Z,89.70
2023-04-02T09:26:28.276Z,92.13
2023-04-02T09:27:28.300Z,88.23
2023-04-02T09:28:28.223Z,89.66
2023-04-02T09:29:28.322Z,89.25
2023-04-02T09:30:28.193Z,88.43
2023-04-02T09:31:28.301Z,88.43
2023-04-02T09:32:28.241Z,85.25
2023-04-02T09:33:28.251Z,88.12
2023-04-02T09:34:29.432Z,87.40
2023-04-02T09:35:28.263Z,86.58
2023-04-02T09:36:28.322Z,86.58
2023-04-02T09:37:52.269Z,84.53
2023-04-02T09:38:28.131Z,84.01
2023-04-02T09:39:30.138Z,87.30
2023-04-02T09:40:28.109Z,88.43
2023-04-02T09:41:29.142Z,83.09
2023-04-02T09:42:28.081Z,83.19
2023-04-02T09:43:28.166Z,83.09
2023-04-02T09:44:28.069Z,83.81
2023-04-02T09:45:28.139Z,85.76
2023-04-02T09:46:28.113Z,86.17
2023-04-02T09:47:28.104Z,86.24
2023-04-02T09:48:28.028Z,87.37
2023-04-02T09:49:28.054Z,85.52
2023-04-02T09:50:28.012Z,84.28
2023-04-02T09:51:28.070Z,84.49
2023-04-02T09:52:27.975Z,84.08
2023-04-02T09:53:28.011Z,84.80
2023-04-02T09:54:27.954Z,83.46
2023-04-02T09:55:27.992Z,83.67
2023-04-02T09:56:27.936Z,82.89
2023-04-02T09:57:29.061Z,84.22
2023-04-02T09:58:27.924Z,86.27
2023-04-02T09:59:27.934Z,86.68
2023-04-02T10:00:32.223Z,83.91
2023-04-02T10:01:27.923Z,84.84
2023-04-02T10:02:28.015Z,83.40
2023-04-02T10:03:27.873Z,83.29
2023-04-02T10:04:27.990Z,84.32
2023-04-02T10:05:40.074Z,86.38
2023-04-02T10:06:27.826Z,86.99
2023-04-02T10:07:27.909Z,86.27
2023-04-02T10:08:27.801Z,85.14
2023-04-02T10:09:27.896Z,86.75
2023-04-02T10:10:27.798Z,86.95
2023-04-02T10:11:36.644Z,84.80
2023-04-02T10:12:27.784Z,85.52
2023-04-02T10:13:27.817Z,84.39
2023-04-02T10:14:27.733Z,82.95
2023-04-02T10:15:27.834Z,84.28
2023-04-02T10:16:27.777Z,86.65
2023-04-02T10:17:28.183Z,85.31
2023-04-02T10:18:27.694Z,87.37
2023-04-02T10:19:27.758Z,84.80
2023-04-02T10:20:28.488Z,83.87
2023-04-02T10:21:27.801Z,87.26
2023-04-02T10:22:27.682Z,85.72
2023-04-02T10:24:44.356Z,85.72
2023-04-02T10:25:45.349Z,85.31
2023-04-02T10:26:45.438Z,83.56
2023-04-02T10:27:45.357Z,84.12
2023-04-02T10:28:45.470Z,83.70
2023-04-02T10:29:45.319Z,84.74
2023-04-02T10:30:45.358Z,84.39
2023-04-02T10:31:45.297Z,85.00
2023-04-02T10:32:45.432Z,84.69
2023-04-02T10:33:45.263Z,85.72
2023-04-02T10:34:45.286Z,85.21
2023-04-02T10:35:45.307Z,83.98
2023-04-02T10:36:45.294Z,84.18
2023-04-02T10:37:45.243Z,86.85
2023-04-02T10:38:47.252Z,83.46
2023-04-02T10:39:45.220Z,85.11
2023-04-02T10:40:46.278Z,85.82
2023-04-02T10:41:45.235Z,85.31
2023-04-02T10:42:45.234Z,85.41
2023-04-02T10:43:45.191Z,86.85
2023-04-02T10:44:45.235Z,85.00
2023-04-02T10:45:45.187Z,83.26
2023-04-02T10:46:45.356Z,83.67
2023-04-02T10:47:45.940Z,83.46
2023-04-02T10:48:45.167Z,84.90
2023-04-02T10:49:45.146Z,84.49
2023-04-02T10:50:46.093Z,85.11
2023-04-02T10:51:45.092Z,86.44
2023-04-02T10:52:45.133Z,83.67
2023-04-02T10:53:45.120Z,84.28
2023-04-02T10:54:46.138Z,82.54
2023-04-02T10:55:45.078Z,82.95
2023-04-02T10:56:51.021Z,83.98
2023-04-02T10:57:45.071Z,85.62
2023-04-02T10:58:45.079Z,83.67
2023-04-02T10:59:45.011Z,82.75
2023-04-02T11:00:45.044Z,84.90
2023-04-02T11:01:45.027Z,83.15
2023-04-02T11:02:45.120Z,83.26
2023-04-02T11:03:45.086Z,86.54
2023-04-02T11:04:45.013Z,87.46
2023-04-02T11:05:44.946Z,86.44
2023-04-02T11:06:45.003Z,86.09
2023-04-02T11:07:44.920Z,85.38
2023-04-02T11:08:45.962Z,86.71
2023-04-02T11:09:44.903Z,84.55
2023-04-02T11:10:45.498Z,82.29
2023-04-02T11:11:44.882Z,83.12
2023-04-02T11:12:44.933Z,83.94
2023-04-02T11:13:44.854Z,86.71
2023-04-02T11:14:44.977Z,83.63
2023-04-02T11:15:44.898Z,82.91
2023-04-02T11:16:47.151Z,84.55
2023-04-02T11:17:44.951Z,83.42
2023-04-02T11:18:44.879Z,83.83
2023-04-02T11:19:44.828Z,83.83
2023-04-02T11:20:44.898Z,84.45
2023-04-02T11:21:57.291Z,84.45
2023-04-02T11:22:44.785Z,85.74
2023-04-02T11:24:08.307Z,85.44
2023-04-02T11:24:45.104Z,86.15
2023-04-02T11:26:07.754Z,86.15
2023-04-02T11:26:44.754Z,85.19
2023-04-02T11:27:44.725Z,82.93
2023-04-02T11:28:44.714Z,82.90
2023-04-02T11:29:44.747Z,82.79
2023-04-02T11:30:44.725Z,80.03
2023-04-02T11:31:44.819Z,79.68
2023-04-02T11:32:44.706Z,83.98
2023-04-02T11:33:46.724Z,79.07
2023-04-02T11:34:44.670Z,80.30
2023-04-02T11:35:44.717Z,81.79
2023-04-02T11:36:44.637Z,81.18
2023-04-02T11:37:44.857Z,83.23
2023-04-02T11:38:44.607Z,78.11
2023-04-02T11:39:44.612Z,79.30
2023-04-02T11:40:44.653Z,76.54
2023-04-02T11:41:44.774Z,75.21
2023-04-02T11:42:48.539Z,76.78
2023-04-02T11:43:47.548Z,78.11
2023-04-02T11:44:45.131Z,80.02
2023-04-02T11:45:52.894Z,79.41
2023-04-02T11:46:44.557Z,79.71
2023-04-02T11:47:44.617Z,80.43
2023-04-02T11:48:44.508Z,78.24
2023-04-02T11:49:44.583Z,77.53
2023-04-02T11:50:44.519Z,79.61
2023-04-02T11:51:44.506Z,75.82
2023-04-02T11:52:44.454Z,75.31
2023-04-02T11:53:44.524Z,76.75
2023-04-02T11:54:44.448Z,77.09
2023-04-02T11:55:44.678Z,75.55
2023-04-02T11:56:45.628Z,78.83
2023-04-02T11:57:44.443Z,77.70
2023-04-02T11:58:44.776Z,78.01
2023-04-02T11:59:44.447Z,79.54
2023-04-02T12:00:44.425Z,81.65
2023-04-02T12:01:44.556Z,81.04
2023-04-02T12:02:44.404Z,77.67
2023-04-02T12:03:46.541Z,80.12
2023-04-02T12:04:44.441Z,78.38
2023-04-02T12:05:44.454Z,79.61
2023-04-02T12:06:44.325Z,81.04
2023-04-02T12:07:44.398Z,78.79
2023-04-02T12:08:54.667Z,77.56
2023-04-02T12:09:44.288Z,79.82
2023-04-02T12:11:07.363Z,80.08
2023-04-02T12:11:44.262Z,79.00
2023-04-02T12:12:44.387Z,77.97
2023-04-02T12:13:44.249Z,77.97
2023-04-02T12:14:44.237Z,79.20
2023-04-02T12:15:44.230Z,79.61
2023-04-02T12:16:44.305Z,78.17
2023-04-02T12:17:44.269Z,78.28
2023-04-02T12:18:46.229Z,77.15
2023-04-02T12:19:44.181Z,77.15
2023-04-02T12:20:44.184Z,77.26
2023-04-02T12:21:44.181Z,76.34
2023-04-02T12:22:44.202Z,76.43
2023-04-02T12:23:44.162Z,77.97
2023-04-02T12:24:44.205Z,80.53
2023-04-02T12:25:44.114Z,78.34
2023-04-02T12:26:44.123Z,76.20
2023-04-02T12:27:44.098Z,75.93
2023-04-02T12:28:44.151Z,76.81
2023-04-02T12:29:44.110Z,75.72
2023-04-02T12:30:44.206Z,76.23
2023-04-02T12:31:44.078Z,77.36
2023-04-02T12:32:44.103Z,75.10
2023-04-02T12:33:44.053Z,74.29
2023-04-02T12:34:44.088Z,76.64
2023-04-02T12:35:44.030Z,76.95
2023-04-02T12:36:44.104Z,76.13
2023-04-02T12:37:44.026Z,78.79
2023-04-02T12:38:44.030Z,76.84
2023-04-02T12:39:43.988Z,73.98
2023-04-02T12:40:44.030Z,73.68
2023-04-02T12:41:43.943Z,76.23
2023-04-02T12:42:44.031Z,76.95
2023-04-02T12:43:43.929Z,76.54
2023-04-02T12:44:44.025Z,76.54
2023-04-02T12:45:43.894Z,76.75
2023-04-02T12:46:44.066Z,76.43
2023-04-02T12:47:43.931Z,78.49
2023-04-02T12:48:43.985Z,77.46
2023-04-02T12:49:43.907Z,76.13
2023-04-02T12:50:43.909Z,76.23
2023-04-02T12:51:43.847Z,76.95
2023-04-02T12:52:43.901Z,78.59
2023-04-02T12:53:43.817Z,76.64